Main page
METAR-TAF:

METAR-TAF

Airports :

Oxford Airport

Oxford, England

latitude: 51-50-13N, longitude: 1-19-12W, elevation: 82 m

Current weather observation

The report was made 8 hours and 26 minutes ago, at 21:20 UTC
Wind 10 kt from the West/Southwest
Temperature 18°C
Humidity 59%
Pressure 1013 hPa
Visibility 10 km or more
no clouds below 1500 m and no cumulonimbus

METAR: EGTK 162120Z 25010KT CAVOK 18/10 Q1013

Time: 06:46 (05:46 UTC)

Forecast

The report was made 12 hours and 50 minutes ago, at 16:56 UTC
Forecast valid from 16 at 18 UTC to 16 at 22 UTC
Wind 8 kt from the West/Southwest
Visibility 10 km or more
Few clouds at a height of 3500 ft
Probability 30% :
Temporary
from 16 at 18 UTC to 16 at 22 UTC
Visibility: 8000 m
rain showers

TAF: EGTK 161656Z 1618/1622 25008KT 9999 FEW035 PROB30 TEMPO 1618/1622 8000 SHRA

Weather observations and forecasts of more than 4000 airports (METAR and TAF reports).

The available stations are represented by yellow and red dots on the map.

Hover mouse over dot to see the name of the station.

Then click to see weather observations and forecasts.

To change the map : click on the green buttons with a black cross to zoom in, on the green button with a dash to zoom out, or on the green arrows for adjacent maps.


METAR-TAF: